Data for 06/13/2009

Time Sea-Level Adjusted Pressure Absolute Pressure Temperature Relative Humidity Dew Point   
(mb) (inHg) (mb) (inHg) (C) (F) (%) (C) (F)
00:05 1017 30.03 846 24.98 11.7 53 48 1.1 34
00:10 1017 30.03 847 25.01 11.6 52.9 50 1.5 34.7
00:15 1017 30.03 847 25.01 11.4 52.5 51 1.6 34.9
00:20 1017 30.03 847 25.01 11.1 52 52 1.7 35.1
00:25 1017 30.03 847 25.01 10.9 51.7 52 1.5 34.8
00:30 1017 30.03 847 25.01 10.8 51.5 53 1.6 34.9
00:35 1017 30.03 847 25.01 10.7 51.3 52 1.4 34.5
00:40 1017 30.03 847 25.01 10.9 51.5 52 1.4 34.4
00:45 1017 30.03 847 25.01 11.1 52 51 1.3 34.3
00:50 1017 30.03 847 25.01 11.2 52.2 51 1.5 34.7
00:55 1018 30.06 847 25.01 11 51.8 51 1.2 34.2
01:00 1018 30.06 847 25.01 11.1 52 50 1 33.8
01:05 1018 30.06 847 25.01 11.2 52.2 51 1.6 34.9
01:10 1018 30.06 847 25.01 10.8 51.5 52 1.3 34.4
01:15 1018 30.06 847 25.01 10.8 51.5 52 1.5 34.7
01:20 1018 30.06 847 25.01 10.7 51.2 53 1.5 34.7
01:25 1017 30.03 847 25.01 10.7 51.2 53 1.6 34.8
01:30 1018 30.06 847 25.01 10.6 51.2 54 1.7 35
01:35 1018 30.06 847 25.01 10.5 50.9 55 1.8 35.3
01:40 1017 30.03 847 25.01 10.2 50.4 56 1.8 35.3
01:45 1018 30.06 847 25.01 10 50.1 56 1.7 35
01:50 1018 30.06 847 25.01 10 50.1 56 1.7 35
01:55 1018 30.06 847 25.01 10.1 50.1 56 1.7 35.1
02:00 1017 30.03 847 25.01 10.3 50.6 55 1.8 35.3
02:05 1017 30.03 847 25.01 10.4 50.7 56 2 35.5
02:10 1017 30.03 847 25.01 10.3 50.5 56 1.9 35.4
02:15 1017 30.03 847 25.01 10.3 50.5 56 1.9 35.5
02:20 1017 30.03 847 25.01 10.4 50.6 55 1.7 35.1
02:25 1017 30.03 847 25.01 10.4 50.8 55 1.9 35.4
02:30 1017 30.03 847 25.01 10.5 50.9 54 1.6 34.8
02:35 1017 30.03 847 25.01 10.7 51.2 54 1.9 35.4
02:40 1017 30.03 847 25.01 10.7 51.3 54 2 35.5
02:45 1017 30.03 847 25.01 10.6 51 56 2.2 35.9
02:50 1017 30.03 847 25.01 10.6 51.1 55 2 35.6
02:55 1017 30.03 847 25.01 10.6 51 56 2.2 36
03:00 1017 30.03 847 25.01 10.1 50.1 59 2.4 36.4
03:05 1017 30.03 847 25.01 10 50 58 2.2 35.9
03:10 1017 30.03 847 25.01 10.3 50.6 55 1.8 35.2
03:15 1017 30.03 847 25.01 10.6 51 56 2.2 35.9
03:20 1017 30.03 847 25.01 10.3 50.6 58 2.4 36.4
03:25 1017 30.03 847 25.01 9.9 49.8 57 1.9 35.4
03:30 1017 30.03 847 25.01 10.2 50.3 57 2.1 35.9
03:35 1017 30.03 847 25.01 10.1 50.2 58 2.2 36
03:40 1017 30.03 847 25.01 9.8 49.6 60 2.5 36.5
03:45 1017 30.03 847 25.01 9.3 48.7 63 2.6 36.6
03:50 1017 30.03 847 25.01 8.9 48 64 2.5 36.5
03:55 1017 30.03 847 25.01 8.7 47.7 64 2.4 36.3
04:00 1017 30.03 847 25.01 8.9 48.1 61 1.8 35.3
04:05 1017 30.03 847 25.01 9.6 49.2 60 2.3 36.1
04:10 1017 30.03 847 25.01 9.6 49.3 60 2.3 36.1
04:15 1017 30.03 847 25.01 9.5 49 60 2.1 35.8
04:20 1017 30.03 847 25.01 9.7 49.4 60 2.3 36.1
04:25 1017 30.03 847 25.01 9.5 49.2 61 2.4 36.2
04:30 1018 30.06 847 25.01 9.2 48.5 63 2.7 36.8
04:35 1018 30.06 847 25.01 8.8 47.9 64 2.4 36.4
04:40 1017 30.03 847 25.01 8.7 47.6 65 2.4 36.4
04:45 1017 30.03 847 25.01 8.6 47.5 65 2.3 36.2
04:50 1018 30.06 847 25.01 8.7 47.6 64 2.3 36.1
04:55 1018 30.06 847 25.01 8.9 48 63 2.3 36.1
05:00 1018 30.06 847 25.01 8.9 48 62 2.1 35.9
05:05 1018 30.06 847 25.01 8.9 48 64 2.5 36.5
05:10 1018 30.06 847 25.01 8.6 47.4 65 2.4 36.3
05:15 1018 30.06 847 25.01 8.5 47.4 62 1.8 35.2
05:20 1018 30.06 847 25.01 9 48.2 63 2.3 36.1
05:25 1018 30.06 847 25.01 9 48.2 62 2.1 35.8
05:30 1018 30.06 847 25.01 8.9 48.1 63 2.2 36
05:35 1018 30.06 847 25.01 8.8 47.8 65 2.5 36.6
05:40 1018 30.06 847 25.01 8.6 47.4 65 2.5 36.5
05:45 1018 30.06 847 25.01 8.6 47.5 64 2.2 36
05:50 1018 30.06 847 25.01 8.8 47.8 66 2.7 36.9
05:55 1018 30.06 847 25.01 8.3 46.9 67 2.6 36.7
06:00 1018 30.06 847 25.01 8.2 46.8 67 2.5 36.5
06:05 1018 30.06 847 25.01 8.4 47.1 66 2.5 36.6
06:10 1018 30.06 847 25.01 8.4 47.2 67 2.6 36.8
06:15 1018 30.06 847 25.01 8.6 47.6 66 2.6 36.7
06:20 1018 30.06 847 25.01 8.8 47.8 65 2.6 36.6
06:25 1018 30.06 847 25.01 8.7 47.6 65 2.5 36.5
06:30 1018 30.06 847 25.01 8.9 47.9 64 2.4 36.4
06:35 1018 30.06 847 25.01 9 48.2 64 2.7 36.8
06:40 1018 30.06 847 25.01 9.1 48.5 65 2.9 37.2
06:45 1018 30.06 847 25.01 9.3 48.8 64 2.9 37.1
06:50 1018 30.06 847 25.01 9.7 49.4 64 3.2 37.8
06:55 1018 30.06 847 25.01 9.6 49.2 64 3.2 37.7
07:00 1018 30.06 847 25.01 9.5 49.1 65 3.2 37.8
07:05 1018 30.06 847 25.01 9.7 49.5 62 2.8 37.1
07:10 1018 30.06 847 25.01 10 50.1 62 3.1 37.5
07:15 1018 30.06 847 25.01 10.2 50.3 61 3.1 37.7
07:20 1018 30.06 847 25.01 10.5 50.9 60 3.2 37.8
07:25 1018 30.06 847 25.01 10.9 51.5 60 3.4 38.1
07:30 1018 30.06 847 25.01 11 51.7 61 3.7 38.7
07:35 1018 30.06 847 25.01 11.4 52.5 60 3.9 39
07:40 1018 30.06 847 25.01 12.1 53.8 57 4 39.2
07:45 1018 30.06 847 25.01 12.5 54.6 57 4.3 39.7
07:50 1018 30.06 847 25.01 12.8 55 54 3.8 38.8
07:55 1018 30.06 847 25.01 13 55.3 54 4 39.2
08:00 1018 30.06 847 25.01 13.1 55.5 55 4.4 39.9
08:05 1018 30.06 847 25.01 12.8 55 54 3.9 39
08:10 1018 30.06 847 25.01 13.1 55.5 53 3.7 38.7
08:15 1018 30.06 847 25.01 13.4 56.1 52 4 39.1
08:20 1018 30.06 847 25.01 13.9 57.1 50 3.6 38.5
08:25 1018 30.06 847 25.01 14.7 58.4 48 3.9 39.1
08:30 1018 30.06 847 25.01 15.3 59.5 46 3.8 38.8
08:35 1018 30.06 847 25.01 16.2 61.1 43 3.8 38.9
08:40 1018 30.06 847 25.01 16.1 60.9 45 4.1 39.4
08:45 1018 30.06 847 25.01 16 60.8 42 3.3 38
08:50 1018 30.06 847 25.01 16.4 61.4 43 4 39.2
08:55 1018 30.06 847 25.01 16.2 61.1 46 4.6 40.4
09:00 1018 30.06 847 25.01 15.9 60.6 46 4.2 39.6
09:05 1018 30.06 847 25.01 16.2 61.1 45 4.4 40
09:10 1018 30.06 847 25.01 16.5 61.6 43 4 39.2
09:15 1018 30.06 847 25.01 16.7 62 43 4.2 39.6
09:20 1018 30.06 847 25.01 16.9 62.5 43 4.4 39.9
09:25 1018 30.06 847 25.01 17 62.5 41 3.7 38.7
09:30 1017 30.03 847 25.01 16.8 62.2 42 3.8 38.9
09:35 1017 30.03 847 25.01 17.1 62.8 41 3.9 39.1
09:40 1017 30.03 847 25.01 16.7 62.1 44 4.6 40.2
09:45 1017 30.03 847 25.01 15.9 60.6 46 4.3 39.8
09:50 1017 30.03 847 25.01 16.1 60.9 43 3.6 38.5
09:55 1017 30.03 847 25.01 16.2 61.1 45 4.5 40.1
10:00 1017 30.03 847 25.01 16 60.8 46 4.4 39.9
10:05 1017 30.03 847 25.01 16.1 60.9 45 4.4 39.9
10:10 1017 30.03 847 25.01 16 60.9 43 3.7 38.6
10:15 1017 30.03 846 24.98 15.9 60.6 45 3.9 39.1
10:20 1017 30.03 846 24.98 16.2 61.1 45 4.2 39.6
10:25 1017 30.03 846 24.98 16.5 61.7 43 3.9 39
10:30 1017 30.03 846 24.98 17.5 63.4 40 3.9 39
10:35 1017 30.03 846 24.98 17.1 62.8 43 4.5 40
10:40 1017 30.03 846 24.98 17.8 64.1 41 4.4 39.8
10:45 1017 30.03 846 24.98 18.5 65.3 39 4.6 40.2
10:50 1017 30.03 846 24.98 18.8 65.8 39 4.8 40.6
10:55 1017 30.03 846 24.98 18.9 66.1 40 5.2 41.4
11:00 1017 30.03 846 24.98 18.4 65 41 5 41
11:05 1017 30.03 846 24.98 18.6 65.5 40 5 41.1
11:10 1017 30.03 846 24.98 18 64.4 42 5 41.1
11:15 1017 30.03 846 24.98 18.8 65.8 40 4.9 40.8
11:20 1017 30.03 846 24.98 18.9 66 41 5.4 41.7
11:25 1017 30.03 846 24.98 18.8 65.9 39 4.8 40.6
11:30 1017 30.03 846 24.98 18.5 65.3 42 5.3 41.6
11:35 1017 30.03 846 24.98 19.6 67.2 39 5.3 41.5
11:40 1017 30.03 846 24.98 19.4 66.9 37 4.5 40.2
11:45 1017 30.03 846 24.98 20.6 69.1 35 4.9 40.9
11:50 1017 30.03 846 24.98 20.3 68.6 38 5.6 42.2
11:55 1017 30.03 846 24.98 20.2 68.4 38 5.4 41.8
12:00 1017 30.03 846 24.98 20 68 41 6.5 43.8
12:05 1017 30.03 846 24.98 20.4 68.8 36 5.2 41.4
12:10 1017 30.03 846 24.98 20.9 69.7 37 5.9 42.7
12:15 1016 30 846 24.98 20.1 68.3 36 4.8 40.6
12:20 1016 30 846 24.98 21 69.8 34 4.6 40.2
12:25 1016 30 846 24.98 20.5 69 38 5.7 42.3
12:30 1016 30 845 24.95 20.1 68.2 36 4.6 40.3
12:35 1016 30 845 24.95 19.7 67.4 37 4.7 40.5
12:40 1016 30 845 24.95 19.7 67.4 36 4.5 40
12:45 1016 30 845 24.95 20.1 68.2 34 4 39.1
12:50 1016 30 845 24.95 21 69.9 31 3.4 38.1
12:55 1016 30 845 24.95 21.7 71.1 31 4.2 39.5
13:00 1016 30 845 24.95 21.3 70.3 31 3.5 38.4
13:05 1016 30 845 24.95 21.6 70.8 33 4.6 40.3
13:10 1016 30 845 24.95 21.1 69.9 32 4 39.2
13:15 1016 30 845 24.95 21.2 70.1 33 4.5 40.2
13:20 1016 30 845 24.95 21.2 70.1 32 3.9 39.1
13:25 1015 29.97 845 24.95 21.9 71.3 31 4.4 39.9
13:30 1015 29.97 845 24.95 20.8 69.5 33 4.1 39.3
13:35 1015 29.97 844 24.92 20.7 69.2 31 3.3 38
13:40 1015 29.97 844 24.92 21.8 71.3 31 4.2 39.6
13:45 1015 29.97 844 24.92 21.7 71 31 4.1 39.3
13:50 1015 29.97 844 24.92 22.4 72.4 28 3.4 38.1
13:55 1015 29.97 844 24.92 22.3 72.1 30 3.9 38.9
14:00 1015 29.97 844 24.92 22.4 72.2 28 3.1 37.6
14:05 1015 29.97 844 24.92 22 71.5 29 3.4 38.2
14:10 1015 29.97 844 24.92 21.7 71 30 3.7 38.6
14:15 1015 29.97 844 24.92 21.6 70.9 29 2.9 37.3
14:20 1015 29.97 844 24.92 22.6 72.6 28 3.3 38
14:25 1015 29.97 844 24.92 21.9 71.3 30 3.7 38.7
14:30 1015 29.97 844 24.92 21.5 70.8 29 2.7 36.9
14:35 1015 29.97 844 24.92 22 71.5 29 3.1 37.6
14:40 1015 29.97 844 24.92 21.8 71.3 29 3.2 37.8
14:45 1015 29.97 844 24.92 21.4 70.5 30 3.1 37.6
14:50 1015 29.97 844 24.92 20.9 69.7 31 3.6 38.4
14:55 1015 29.97 844 24.92 21.1 69.9 31 3.4 38.1
15:00 1015 29.97 844 24.92 21.5 70.7 30 3.2 37.8
15:05 1015 29.97 844 24.92 21.5 70.6 30 3.5 38.3
15:10 1015 29.97 844 24.92 21.3 70.4 29 2.9 37.2
15:15 1015 29.97 844 24.92 21.4 70.5 30 3.3 38
15:20 1014 29.94 844 24.92 21.7 71.1 30 3.6 38.5
15:25 1014 29.94 844 24.92 21.9 71.4 31 4 39.3
15:30 1014 29.94 844 24.92 21.4 70.5 31 3.8 38.9
15:35 1014 29.94 843 24.89 21.6 70.8 31 4 39.2
15:40 1014 29.94 843 24.89 21.5 70.7 31 3.9 39.1
15:45 1014 29.94 843 24.89 20.8 69.4 32 3.6 38.5
15:50 1014 29.94 843 24.89 20.4 68.7 32 3.5 38.3
15:55 1014 29.94 843 24.89 20.2 68.4 34 4 39.2
16:00 1014 29.94 843 24.89 20.3 68.5 34 4.2 39.5
16:05 1014 29.94 843 24.89 19.9 67.9 35 4.2 39.5
16:10 1014 29.94 844 24.92 19.7 67.4 36 4.2 39.5
16:15 1014 29.94 844 24.92 19.6 67.2 36 4 39.3
16:20 1014 29.94 844 24.92 19.5 67 36 4.1 39.4
16:25 1014 29.94 844 24.92 19.4 66.9 36 4.1 39.3
16:30 1014 29.94 844 24.92 19.3 66.7 37 4.4 40
16:35 1014 29.94 844 24.92 19.2 66.5 39 5.2 41.4
16:40 1014 29.94 844 24.92 18 64.4 43 5.3 41.5
16:45 1014 29.94 844 24.92 17.4 63.3 42 4.6 40.2
16:50 1014 29.94 844 24.92 17.2 62.9 43 4.7 40.4
16:55 1015 29.97 844 24.92 16.8 62.3 48 5.9 42.7
17:00 1014 29.94 844 24.92 16.5 61.6 49 5.8 42.5
17:05 1014 29.94 844 24.92 16.4 61.5 46 5 40.9
17:10 1014 29.94 844 24.92 16.4 61.6 44 4.3 39.7
17:15 1014 29.94 844 24.92 16.4 61.6 47 5.2 41.4
17:20 1015 29.97 844 24.92 16 60.8 52 6.2 43.2
17:25 1015 29.97 844 24.92 15.8 60.5 55 6.8 44.2
17:30 1014 29.94 844 24.92 15.5 59.8 57 7 44.7
17:35 1015 29.97 844 24.92 15.4 59.6 56 6.6 43.9
17:40 1015 29.97 844 24.92 15.6 60 54 6.4 43.6
17:45 1015 29.97 844 24.92 15.6 60.1 56 7.1 44.7
17:50 1015 29.97 844 24.92 15.6 60 55 6.7 44.1
17:55 1015 29.97 844 24.92 15.6 60.1 56 6.9 44.5
18:00 1015 29.97 845 24.95 15.4 59.7 55 6.4 43.6
18:05 1015 29.97 845 24.95 15.3 59.6 57 6.9 44.5
18:10 1015 29.97 845 24.95 15.1 59.1 58 7 44.6
18:15 1015 29.97 845 24.95 14.8 58.6 62 7.6 45.7
18:20 1015 29.97 845 24.95 14.5 58.2 63 7.7 45.9
18:25 1015 29.97 844 24.92 14.5 58.1 62 7.3 45.2
18:30 1015 29.97 845 24.95 14.5 58.1 64 7.9 46.1
18:35 1015 29.97 845 24.95 14.2 57.5 66 7.9 46.3
18:40 1015 29.97 844 24.92 14.1 57.4 64 7.5 45.6
18:45 1015 29.97 844 24.92 14.2 57.6 65 7.8 46.1
18:50 1015 29.97 844 24.92 14.4 57.8 62 7.2 44.9
18:55 1015 29.97 844 24.92 14.7 58.5 60 7 44.6
19:00 1015 29.97 844 24.92 15 58.9 56 6.3 43.4
19:05 1015 29.97 844 24.92 15.3 59.5 56 6.5 43.7
19:10 1015 29.97 844 24.92 15.5 60 55 6.7 44
19:15 1015 29.97 844 24.92 15.9 60.6 55 6.9 44.4
19:20 1015 29.97 844 24.92 16 60.7 56 7.2 45
19:25 1015 29.97 844 24.92 15.7 60.3 61 8.2 46.8
19:30 1015 29.97 844 24.92 15.1 59.2 63 8.1 46.5
19:35 1015 29.97 844 24.92 15.1 59.2 62 7.9 46.2
19:40 1015 29.97 844 24.92 14.8 58.7 62 7.6 45.7
19:45 1014 29.94 844 24.92 14.6 58.3 63 7.7 45.9
19:50 1014 29.94 844 24.92 14.5 58.1 64 7.8 46.1
19:55 1014 29.94 844 24.92 14.4 57.8 63 7.5 45.5
20:00 1014 29.94 844 24.92 14.3 57.8 62 7.3 45.1
20:05 1014 29.94 844 24.92 14.4 57.9 63 7.5 45.6
20:10 1014 29.94 844 24.92 14.4 57.9 62 7.4 45.3
20:15 1014 29.94 844 24.92 14.3 57.8 63 7.4 45.4
20:20 1014 29.94 844 24.92 14.2 57.6 63 7.3 45.2
20:25 1014 29.94 844 24.92 14.2 57.5 64 7.5 45.4
20:30 1014 29.94 844 24.92 14 57.3 65 7.6 45.7
20:35 1014 29.94 844 24.92 13.9 57.1 65 7.5 45.5
20:40 1014 29.94 844 24.92 13.9 57.1 65 7.6 45.6
20:45 1014 29.94 844 24.92 13.8 56.8 68 8.1 46.6
20:50 1014 29.94 844 24.92 13.6 56.4 69 8.1 46.5
20:55 1014 29.94 844 24.92 13.5 56.3 69 7.9 46.2
21:00 1014 29.94 844 24.92 13.6 56.5 67 7.7 45.9
21:05 1015 29.97 844 24.92 13.6 56.4 67 7.7 45.8
21:10 1015 29.97 844 24.92 13.5 56.3 68 7.8 46.1
21:15 1015 29.97 844 24.92 13.5 56.3 66 7.4 45.3
21:20 1015 29.97 844 24.92 13.4 56.2 68 7.7 45.9
21:25 1015 29.97 844 24.92 13.2 55.8 71 8 46.4
21:30 1015 29.97 844 24.92 13 55.4 72 8 46.5
21:35 1015 29.97 844 24.92 12.8 55 73 8 46.4
21:40 1015 29.97 844 24.92 12.7 54.8 73 8 46.4
21:45 1015 29.97 844 24.92 12.4 54.4 73 7.7 45.8
21:50 1015 29.97 844 24.92 12.3 54.2 73 7.7 45.8
21:55 1015 29.97 844 24.92 12.2 53.9 74 7.7 45.9
22:00 1015 29.97 844 24.92 12 53.6 74 7.6 45.6
22:05 1015 29.97 844 24.92 11.9 53.4 75 7.6 45.7
22:10 1015 29.97 844 24.92 11.7 53 73 7.1 44.8
22:15 1015 29.97 844 24.92 11.9 53.5 70 6.7 44
22:20 1015 29.97 844 24.92 11.9 53.3 74 7.3 45.2
22:25 1015 29.97 844 24.92 11.3 52.4 74 6.9 44.4
22:30 1015 29.97 844 24.92 11.4 52.5 73 6.7 44.1
22:35 1015 29.97 844 24.92 11.5 52.7 72 6.7 44.1
22:40 1015 29.97 844 24.92 11.3 52.3 73 6.6 43.9
22:45 1015 29.97 844 24.92 11.2 52.1 74 6.6 44
22:50 1015 29.97 844 24.92 11.3 52.3 70 6.1 43
22:55 1015 29.97 844 24.92 11.5 52.7 69 6 42.9
23:00 1015 29.97 844 24.92 11.7 53 69 6.2 43.2
23:05 1015 29.97 844 24.92 11.6 52.8 71 6.5 43.7
23:10 1015 29.97 844 24.92 11.4 52.5 71 6.5 43.6
23:15 1015 29.97 844 24.92 11.2 52.1 73 6.6 43.9
23:20 1015 29.97 844 24.92 10.9 51.6 75 6.6 43.8
23:25 1015 29.97 844 24.92 10.6 51.2 75 6.5 43.7
23:30 1015 29.97 844 24.92 10.6 51.2 76 6.6 43.8
23:35 1015 29.97 844 24.92 10.4 50.8 77 6.5 43.8
23:40 1015 29.97 844 24.92 10.4 50.7 77 6.5 43.7
23:45 1015 29.97 844 24.92 10.3 50.6 76 6.3 43.3
23:50 1015 29.97 844 24.92 11 51.7 75 6.6 43.9
23:55 1015 29.97 844 24.92 10.5 50.8 75 6.3 43.3
24:00 1015 29.97 844 24.92 10.3 50.6 78 6.6 44